sensor_id;sensor_type;location;lat;lon;timestamp;P1;durP1;ratioP1;P2;durP2;ratioP2
30380;SDS011;17169;50.966;11.038;2023-05-07T00:02:29;35.97;;;20.63;;
30380;SDS011;17169;50.966;11.038;2023-05-07T00:05:34;33.80;;;21.65;;
30380;SDS011;17169;50.966;11.038;2023-05-07T00:08:36;34.15;;;20.45;;
30380;SDS011;17169;50.966;11.038;2023-05-07T00:11:39;35.35;;;21.20;;
30380;SDS011;17169;50.966;11.038;2023-05-07T00:14:41;37.05;;;21.30;;
30380;SDS011;17169;50.966;11.038;2023-05-07T00:17:43;35.55;;;20.92;;
30380;SDS011;17169;50.966;11.038;2023-05-07T00:20:47;34.65;;;20.15;;
30380;SDS011;17169;50.966;11.038;2023-05-07T00:23:49;34.65;;;20.60;;
30380;SDS011;17169;50.966;11.038;2023-05-07T00:26:52;33.22;;;21.10;;
30380;SDS011;17169;50.966;11.038;2023-05-07T00:29:54;35.30;;;21.35;;
30380;SDS011;17169;50.966;11.038;2023-05-07T00:32:57;34.60;;;20.00;;
30380;SDS011;17169;50.966;11.038;2023-05-07T00:36:00;38.25;;;21.15;;
30380;SDS011;17169;50.966;11.038;2023-05-07T00:39:03;34.95;;;19.63;;
30380;SDS011;17169;50.966;11.038;2023-05-07T00:42:05;36.88;;;21.50;;
30380;SDS011;17169;50.966;11.038;2023-05-07T00:45:08;32.63;;;20.05;;
30380;SDS011;17169;50.966;11.038;2023-05-07T00:48:11;40.03;;;21.27;;
30380;SDS011;17169;50.966;11.038;2023-05-07T00:51:16;39.10;;;21.83;;
30380;SDS011;17169;50.966;11.038;2023-05-07T00:54:19;40.37;;;22.13;;
30380;SDS011;17169;50.966;11.038;2023-05-07T00:57:22;37.95;;;20.70;;
30380;SDS011;17169;50.966;11.038;2023-05-07T01:00:26;42.70;;;23.10;;
30380;SDS011;17169;50.966;11.038;2023-05-07T01:03:28;38.15;;;22.33;;
30380;SDS011;17169;50.966;11.038;2023-05-07T01:06:32;36.30;;;21.73;;
30380;SDS011;17169;50.966;11.038;2023-05-07T01:09:35;34.87;;;21.00;;
30380;SDS011;17169;50.966;11.038;2023-05-07T01:12:38;36.90;;;22.20;;
30380;SDS011;17169;50.966;11.038;2023-05-07T01:15:43;39.95;;;21.75;;
30380;SDS011;17169;50.966;11.038;2023-05-07T01:18:45;42.20;;;22.30;;
30380;SDS011;17169;50.966;11.038;2023-05-07T01:21:50;39.92;;;21.67;;
30380;SDS011;17169;50.966;11.038;2023-05-07T01:24:58;41.67;;;22.85;;
30380;SDS011;17169;50.966;11.038;2023-05-07T01:31:04;38.50;;;21.48;;
30380;SDS011;17169;50.966;11.038;2023-05-07T01:34:07;41.75;;;22.50;;
30380;SDS011;17169;50.966;11.038;2023-05-07T01:37:11;42.53;;;22.52;;
30380;SDS011;17169;50.966;11.038;2023-05-07T01:40:15;39.42;;;21.00;;
30380;SDS011;17169;50.966;11.038;2023-05-07T01:43:18;42.63;;;21.70;;
30380;SDS011;17169;50.966;11.038;2023-05-07T01:46:21;46.83;;;21.77;;
30380;SDS011;17169;50.966;11.038;2023-05-07T01:49:23;36.53;;;22.30;;
30380;SDS011;17169;50.966;11.038;2023-05-07T01:52:27;40.03;;;20.98;;
30380;SDS011;17169;50.966;11.038;2023-05-07T01:55:31;41.35;;;21.60;;
30380;SDS011;17169;50.966;11.038;2023-05-07T01:58:33;36.30;;;21.42;;
30380;SDS011;17169;50.966;11.038;2023-05-07T02:01:35;43.30;;;21.52;;
30380;SDS011;17169;50.966;11.038;2023-05-07T02:04:38;41.05;;;22.05;;
30380;SDS011;17169;50.966;11.038;2023-05-07T02:07:40;43.28;;;21.13;;
30380;SDS011;17169;50.966;11.038;2023-05-07T02:10:44;38.20;;;21.98;;
30380;SDS011;17169;50.966;11.038;2023-05-07T02:13:46;41.65;;;21.30;;
30380;SDS011;17169;50.966;11.038;2023-05-07T02:16:49;40.47;;;20.90;;
30380;SDS011;17169;50.966;11.038;2023-05-07T02:19:51;37.60;;;21.13;;
30380;SDS011;17169;50.966;11.038;2023-05-07T02:22:54;35.88;;;20.67;;
30380;SDS011;17169;50.966;11.038;2023-05-07T02:25:57;38.92;;;21.00;;
30380;SDS011;17169;50.966;11.038;2023-05-07T02:29:00;40.95;;;21.48;;
30380;SDS011;17169;50.966;11.038;2023-05-07T02:32:02;37.28;;;22.30;;
30380;SDS011;17169;50.966;11.038;2023-05-07T02:35:05;34.42;;;20.08;;
30380;SDS011;17169;50.966;11.038;2023-05-07T02:38:08;35.75;;;19.98;;
30380;SDS011;17169;50.966;11.038;2023-05-07T02:41:12;38.50;;;20.23;;
30380;SDS011;17169;50.966;11.038;2023-05-07T02:44:15;36.78;;;21.48;;
30380;SDS011;17169;50.966;11.038;2023-05-07T02:47:17;37.58;;;22.05;;
30380;SDS011;17169;50.966;11.038;2023-05-07T02:50:19;36.95;;;21.08;;
30380;SDS011;17169;50.966;11.038;2023-05-07T02:53:22;36.42;;;21.02;;
30380;SDS011;17169;50.966;11.038;2023-05-07T02:56:27;38.13;;;20.63;;
30380;SDS011;17169;50.966;11.038;2023-05-07T02:59:30;34.53;;;19.60;;
30380;SDS011;17169;50.966;11.038;2023-05-07T03:02:33;37.53;;;21.08;;
30380;SDS011;17169;50.966;11.038;2023-05-07T03:05:35;34.72;;;21.95;;
30380;SDS011;17169;50.966;11.038;2023-05-07T03:08:37;32.42;;;19.35;;
30380;SDS011;17169;50.966;11.038;2023-05-07T03:11:41;33.25;;;20.45;;
30380;SDS011;17169;50.966;11.038;2023-05-07T03:14:44;34.63;;;21.00;;
30380;SDS011;17169;50.966;11.038;2023-05-07T03:17:46;40.58;;;19.40;;
30380;SDS011;17169;50.966;11.038;2023-05-07T03:20:48;30.42;;;19.27;;
30380;SDS011;17169;50.966;11.038;2023-05-07T03:23:51;35.92;;;19.17;;
30380;SDS011;17169;50.966;11.038;2023-05-07T03:26:55;34.85;;;19.83;;
30380;SDS011;17169;50.966;11.038;2023-05-07T03:29:58;31.00;;;19.42;;
30380;SDS011;17169;50.966;11.038;2023-05-07T03:33:00;33.30;;;19.02;;
30380;SDS011;17169;50.966;11.038;2023-05-07T03:36:03;32.90;;;18.23;;
30380;SDS011;17169;50.966;11.038;2023-05-07T03:39:06;32.47;;;17.83;;
30380;SDS011;17169;50.966;11.038;2023-05-07T03:42:10;30.83;;;17.90;;
30380;SDS011;17169;50.966;11.038;2023-05-07T03:45:12;30.95;;;17.98;;
30380;SDS011;17169;50.966;11.038;2023-05-07T03:48:14;34.35;;;17.92;;
30380;SDS011;17169;50.966;11.038;2023-05-07T03:51:17;32.33;;;17.38;;
30380;SDS011;17169;50.966;11.038;2023-05-07T03:54:19;29.95;;;16.63;;
30380;SDS011;17169;50.966;11.038;2023-05-07T03:57:23;30.25;;;17.08;;
30380;SDS011;17169;50.966;11.038;2023-05-07T04:00:25;30.40;;;17.65;;
30380;SDS011;17169;50.966;11.038;2023-05-07T04:03:28;36.28;;;18.58;;
30380;SDS011;17169;50.966;11.038;2023-05-07T04:06:31;32.60;;;18.35;;
30380;SDS011;17169;50.966;11.038;2023-05-07T04:09:33;33.33;;;18.40;;
30380;SDS011;17169;50.966;11.038;2023-05-07T04:12:38;27.52;;;17.35;;
30380;SDS011;17169;50.966;11.038;2023-05-07T04:15:40;36.63;;;18.05;;
30380;SDS011;17169;50.966;11.038;2023-05-07T04:18:42;31.08;;;18.83;;
30380;SDS011;17169;50.966;11.038;2023-05-07T04:21:45;32.28;;;17.88;;
30380;SDS011;17169;50.966;11.038;2023-05-07T04:24:47;28.65;;;16.98;;
30380;SDS011;17169;50.966;11.038;2023-05-07T04:27:51;33.60;;;17.95;;
30380;SDS011;17169;50.966;11.038;2023-05-07T04:30:53;28.83;;;17.00;;
30380;SDS011;17169;50.966;11.038;2023-05-07T04:33:56;28.90;;;16.40;;
30380;SDS011;17169;50.966;11.038;2023-05-07T04:36:58;25.50;;;16.05;;
30380;SDS011;17169;50.966;11.038;2023-05-07T04:40:01;29.08;;;16.58;;
30380;SDS011;17169;50.966;11.038;2023-05-07T04:43:05;24.08;;;14.63;;
30380;SDS011;17169;50.966;11.038;2023-05-07T04:46:09;26.30;;;15.55;;
30380;SDS011;17169;50.966;11.038;2023-05-07T04:49:12;23.55;;;14.57;;
30380;SDS011;17169;50.966;11.038;2023-05-07T04:52:14;22.45;;;13.57;;
30380;SDS011;17169;50.966;11.038;2023-05-07T04:55:17;25.33;;;13.88;;
30380;SDS011;17169;50.966;11.038;2023-05-07T04:58:21;20.42;;;13.40;;
30380;SDS011;17169;50.966;11.038;2023-05-07T05:01:23;20.95;;;12.80;;
30380;SDS011;17169;50.966;11.038;2023-05-07T05:04:26;19.08;;;12.07;;
30380;SDS011;17169;50.966;11.038;2023-05-07T05:07:28;17.80;;;11.98;;
30380;SDS011;17169;50.966;11.038;2023-05-07T05:10:31;17.70;;;11.68;;
30380;SDS011;17169;50.966;11.038;2023-05-07T05:13:34;20.98;;;12.55;;
30380;SDS011;17169;50.966;11.038;2023-05-07T05:16:37;18.38;;;11.75;;
30380;SDS011;17169;50.966;11.038;2023-05-07T05:19:39;19.52;;;12.32;;
30380;SDS011;17169;50.966;11.038;2023-05-07T05:22:42;19.95;;;11.43;;
30380;SDS011;17169;50.966;11.038;2023-05-07T05:25:44;18.02;;;11.73;;
30380;SDS011;17169;50.966;11.038;2023-05-07T05:28:48;18.73;;;12.65;;
30380;SDS011;17169;50.966;11.038;2023-05-07T05:31:50;26.95;;;14.05;;
30380;SDS011;17169;50.966;11.038;2023-05-07T05:34:53;19.25;;;12.32;;
30380;SDS011;17169;50.966;11.038;2023-05-07T05:37:56;21.00;;;13.10;;
30380;SDS011;17169;50.966;11.038;2023-05-07T05:40:58;26.80;;;14.65;;
30380;SDS011;17169;50.966;11.038;2023-05-07T05:44:02;21.60;;;14.32;;
30380;SDS011;17169;50.966;11.038;2023-05-07T05:47:04;27.67;;;16.88;;
30380;SDS011;17169;50.966;11.038;2023-05-07T05:50:07;24.20;;;15.60;;
30380;SDS011;17169;50.966;11.038;2023-05-07T05:53:09;23.08;;;15.35;;
30380;SDS011;17169;50.966;11.038;2023-05-07T05:56:12;27.00;;;15.57;;
30380;SDS011;17169;50.966;11.038;2023-05-07T05:59:16;28.52;;;16.33;;
30380;SDS011;17169;50.966;11.038;2023-05-07T06:02:18;24.30;;;16.45;;
30380;SDS011;17169;50.966;11.038;2023-05-07T06:05:20;27.60;;;17.38;;
30380;SDS011;17169;50.966;11.038;2023-05-07T06:08:23;26.77;;;16.88;;
30380;SDS011;17169;50.966;11.038;2023-05-07T06:11:25;25.98;;;15.75;;
30380;SDS011;17169;50.966;11.038;2023-05-07T06:14:29;23.10;;;14.50;;
30380;SDS011;17169;50.966;11.038;2023-05-07T06:17:32;26.58;;;16.48;;
30380;SDS011;17169;50.966;11.038;2023-05-07T06:20:34;27.33;;;15.95;;
30380;SDS011;17169;50.966;11.038;2023-05-07T06:23:36;30.60;;;16.05;;
30380;SDS011;17169;50.966;11.038;2023-05-07T06:26:41;26.23;;;14.90;;
30380;SDS011;17169;50.966;11.038;2023-05-07T06:29:45;26.02;;;13.90;;
30380;SDS011;17169;50.966;11.038;2023-05-07T06:32:49;25.50;;;15.25;;
30380;SDS011;17169;50.966;11.038;2023-05-07T06:35:52;26.20;;;14.68;;
30380;SDS011;17169;50.966;11.038;2023-05-07T06:38:54;22.67;;;14.48;;
30380;SDS011;17169;50.966;11.038;2023-05-07T06:41:57;21.92;;;13.93;;
30380;SDS011;17169;50.966;11.038;2023-05-07T06:45:01;23.70;;;13.60;;
30380;SDS011;17169;50.966;11.038;2023-05-07T06:48:04;23.13;;;13.27;;
30380;SDS011;17169;50.966;11.038;2023-05-07T06:51:06;19.23;;;12.23;;
30380;SDS011;17169;50.966;11.038;2023-05-07T06:54:09;18.40;;;11.80;;
30380;SDS011;17169;50.966;11.038;2023-05-07T06:57:11;20.05;;;11.30;;
30380;SDS011;17169;50.966;11.038;2023-05-07T07:00:16;22.42;;;12.07;;
30380;SDS011;17169;50.966;11.038;2023-05-07T07:03:18;17.50;;;11.45;;
30380;SDS011;17169;50.966;11.038;2023-05-07T07:06:21;22.52;;;10.93;;
30380;SDS011;17169;50.966;11.038;2023-05-07T07:09:23;19.00;;;11.02;;
30380;SDS011;17169;50.966;11.038;2023-05-07T07:12:26;22.65;;;11.48;;
30380;SDS011;17169;50.966;11.038;2023-05-07T07:15:30;15.98;;;9.90;;
30380;SDS011;17169;50.966;11.038;2023-05-07T07:18:33;16.77;;;10.43;;
30380;SDS011;17169;50.966;11.038;2023-05-07T07:21:36;16.00;;;10.07;;
30380;SDS011;17169;50.966;11.038;2023-05-07T07:24:38;18.80;;;10.30;;
30380;SDS011;17169;50.966;11.038;2023-05-07T07:27:41;17.23;;;10.35;;
30380;SDS011;17169;50.966;11.038;2023-05-07T07:30:44;16.73;;;9.38;;
30380;SDS011;17169;50.966;11.038;2023-05-07T07:33:47;12.95;;;9.00;;
30380;SDS011;17169;50.966;11.038;2023-05-07T07:36:50;18.98;;;9.98;;
30380;SDS011;17169;50.966;11.038;2023-05-07T07:39:53;19.77;;;11.27;;
30380;SDS011;17169;50.966;11.038;2023-05-07T07:42:56;17.90;;;10.88;;
30380;SDS011;17169;50.966;11.038;2023-05-07T07:45:59;16.88;;;10.45;;
30380;SDS011;17169;50.966;11.038;2023-05-07T07:49:02;18.00;;;10.13;;
30380;SDS011;17169;50.966;11.038;2023-05-07T07:52:04;21.85;;;12.13;;
30380;SDS011;17169;50.966;11.038;2023-05-07T07:55:07;16.40;;;10.93;;
30380;SDS011;17169;50.966;11.038;2023-05-07T07:58:10;19.75;;;11.48;;
30380;SDS011;17169;50.966;11.038;2023-05-07T08:01:14;15.43;;;10.35;;
30380;SDS011;17169;50.966;11.038;2023-05-07T08:04:17;15.75;;;9.90;;
30380;SDS011;17169;50.966;11.038;2023-05-07T08:07:20;17.05;;;10.75;;
30380;SDS011;17169;50.966;11.038;2023-05-07T08:10:23;18.35;;;10.93;;
30380;SDS011;17169;50.966;11.038;2023-05-07T08:13:25;17.20;;;10.30;;
30380;SDS011;17169;50.966;11.038;2023-05-07T08:16:29;17.40;;;10.85;;
30380;SDS011;17169;50.966;11.038;2023-05-07T08:19:32;18.25;;;12.23;;
30380;SDS011;17169;50.966;11.038;2023-05-07T08:22:35;17.17;;;10.73;;
30380;SDS011;17169;50.966;11.038;2023-05-07T08:25:37;17.17;;;11.02;;
30380;SDS011;17169;50.966;11.038;2023-05-07T08:28:40;16.63;;;11.85;;
30380;SDS011;17169;50.966;11.038;2023-05-07T08:31:44;17.73;;;10.57;;
30380;SDS011;17169;50.966;11.038;2023-05-07T08:34:46;18.50;;;10.93;;
30380;SDS011;17169;50.966;11.038;2023-05-07T08:37:49;17.05;;;10.98;;
30380;SDS011;17169;50.966;11.038;2023-05-07T08:40:51;18.80;;;11.52;;
30380;SDS011;17169;50.966;11.038;2023-05-07T08:43:54;15.77;;;10.98;;
30380;SDS011;17169;50.966;11.038;2023-05-07T08:47:01;18.60;;;12.05;;
30380;SDS011;17169;50.966;11.038;2023-05-07T08:50:04;17.55;;;11.95;;
30380;SDS011;17169;50.966;11.038;2023-05-07T08:53:07;17.33;;;12.13;;
30380;SDS011;17169;50.966;11.038;2023-05-07T08:56:10;19.00;;;11.82;;
30380;SDS011;17169;50.966;11.038;2023-05-07T08:59:13;19.23;;;12.05;;
30380;SDS011;17169;50.966;11.038;2023-05-07T09:02:17;20.13;;;12.02;;
30380;SDS011;17169;50.966;11.038;2023-05-07T09:05:19;18.67;;;11.88;;
30380;SDS011;17169;50.966;11.038;2023-05-07T09:08:24;19.73;;;12.65;;
30380;SDS011;17169;50.966;11.038;2023-05-07T09:11:27;16.08;;;11.27;;
30380;SDS011;17169;50.966;11.038;2023-05-07T09:14:30;18.88;;;11.48;;
30380;SDS011;17169;50.966;11.038;2023-05-07T09:17:33;18.73;;;11.25;;
30380;SDS011;17169;50.966;11.038;2023-05-07T09:20:36;20.40;;;12.68;;
30380;SDS011;17169;50.966;11.038;2023-05-07T09:23:38;20.73;;;12.75;;
30380;SDS011;17169;50.966;11.038;2023-05-07T09:26:41;21.70;;;13.23;;
30380;SDS011;17169;50.966;11.038;2023-05-07T09:29:44;20.55;;;12.25;;
30380;SDS011;17169;50.966;11.038;2023-05-07T09:32:48;18.10;;;11.73;;
30380;SDS011;17169;50.966;11.038;2023-05-07T09:35:50;22.77;;;12.38;;
30380;SDS011;17169;50.966;11.038;2023-05-07T09:38:53;19.42;;;12.57;;
30380;SDS011;17169;50.966;11.038;2023-05-07T09:41:57;25.95;;;11.75;;
30380;SDS011;17169;50.966;11.038;2023-05-07T09:45:01;23.40;;;13.60;;
30380;SDS011;17169;50.966;11.038;2023-05-07T09:48:05;21.00;;;12.25;;
30380;SDS011;17169;50.966;11.038;2023-05-07T09:51:11;19.60;;;12.50;;
30380;SDS011;17169;50.966;11.038;2023-05-07T09:54:24;14.68;;;10.48;;
30380;SDS011;17169;50.966;11.038;2023-05-07T09:57:27;18.23;;;10.88;;
30380;SDS011;17169;50.966;11.038;2023-05-07T10:00:31;16.08;;;10.43;;
30380;SDS011;17169;50.966;11.038;2023-05-07T10:03:35;16.05;;;11.05;;
30380;SDS011;17169;50.966;11.038;2023-05-07T10:06:38;14.75;;;10.38;;
30380;SDS011;17169;50.966;11.038;2023-05-07T10:09:42;16.95;;;10.55;;
30380;SDS011;17169;50.966;11.038;2023-05-07T10:12:45;15.32;;;9.98;;
30380;SDS011;17169;50.966;11.038;2023-05-07T10:15:47;18.60;;;10.60;;
30380;SDS011;17169;50.966;11.038;2023-05-07T10:18:53;16.17;;;10.60;;
30380;SDS011;17169;50.966;11.038;2023-05-07T10:22:00;18.40;;;11.85;;
30380;SDS011;17169;50.966;11.038;2023-05-07T10:25:06;17.83;;;11.95;;
30380;SDS011;17169;50.966;11.038;2023-05-07T10:28:16;17.58;;;11.23;;
30380;SDS011;17169;50.966;11.038;2023-05-07T10:31:25;18.20;;;11.48;;
30380;SDS011;17169;50.966;11.038;2023-05-07T10:34:43;16.65;;;11.43;;
30380;SDS011;17169;50.966;11.038;2023-05-07T10:37:48;14.68;;;10.40;;
30380;SDS011;17169;50.966;11.038;2023-05-07T10:40:51;17.60;;;11.30;;
30380;SDS011;17169;50.966;11.038;2023-05-07T10:43:54;16.58;;;10.75;;
30380;SDS011;17169;50.966;11.038;2023-05-07T10:47:03;18.38;;;11.52;;
30380;SDS011;17169;50.966;11.038;2023-05-07T10:50:23;13.93;;;10.15;;
30380;SDS011;17169;50.966;11.038;2023-05-07T10:53:25;17.10;;;10.27;;
30380;SDS011;17169;50.966;11.038;2023-05-07T10:56:29;17.50;;;10.38;;
30380;SDS011;17169;50.966;11.038;2023-05-07T10:59:34;13.73;;;9.45;;
30380;SDS011;17169;50.966;11.038;2023-05-07T11:06:10;13.95;;;9.38;;
30380;SDS011;17169;50.966;11.038;2023-05-07T11:09:13;16.67;;;10.02;;
30380;SDS011;17169;50.966;11.038;2023-05-07T11:12:17;13.38;;;8.95;;
30380;SDS011;17169;50.966;11.038;2023-05-07T11:15:35;16.98;;;10.02;;
30380;SDS011;17169;50.966;11.038;2023-05-07T11:18:47;15.07;;;9.75;;
30380;SDS011;17169;50.966;11.038;2023-05-07T11:21:51;13.18;;;9.95;;
30380;SDS011;17169;50.966;11.038;2023-05-07T11:24:54;15.10;;;10.68;;
30380;SDS011;17169;50.966;11.038;2023-05-07T11:28:03;19.15;;;10.55;;
30380;SDS011;17169;50.966;11.038;2023-05-07T11:31:07;15.65;;;10.68;;
30380;SDS011;17169;50.966;11.038;2023-05-07T11:34:10;16.92;;;10.77;;
30380;SDS011;17169;50.966;11.038;2023-05-07T11:37:17;13.55;;;9.85;;
30380;SDS011;17169;50.966;11.038;2023-05-07T11:40:20;16.58;;;10.45;;
30380;SDS011;17169;50.966;11.038;2023-05-07T11:43:23;14.30;;;9.55;;
30380;SDS011;17169;50.966;11.038;2023-05-07T11:46:26;16.67;;;10.05;;
30380;SDS011;17169;50.966;11.038;2023-05-07T11:49:29;17.08;;;11.15;;
30380;SDS011;17169;50.966;11.038;2023-05-07T11:52:33;18.27;;;10.32;;
30380;SDS011;17169;50.966;11.038;2023-05-07T11:55:36;15.10;;;10.27;;
30380;SDS011;17169;50.966;11.038;2023-05-07T11:58:38;14.07;;;10.05;;
30380;SDS011;17169;50.966;11.038;2023-05-07T12:01:42;16.85;;;11.20;;
30380;SDS011;17169;50.966;11.038;2023-05-07T12:04:47;15.65;;;10.18;;
30380;SDS011;17169;50.966;11.038;2023-05-07T12:07:56;13.75;;;9.70;;
30380;SDS011;17169;50.966;11.038;2023-05-07T12:10:59;16.23;;;10.27;;
30380;SDS011;17169;50.966;11.038;2023-05-07T12:14:01;16.25;;;9.13;;
30380;SDS011;17169;50.966;11.038;2023-05-07T12:17:03;19.52;;;9.38;;
30380;SDS011;17169;50.966;11.038;2023-05-07T12:20:07;15.40;;;9.52;;
30380;SDS011;17169;50.966;11.038;2023-05-07T12:23:12;14.70;;;9.15;;
30380;SDS011;17169;50.966;11.038;2023-05-07T12:26:15;12.55;;;8.73;;
30380;SDS011;17169;50.966;11.038;2023-05-07T12:29:17;13.52;;;8.07;;
30380;SDS011;17169;50.966;11.038;2023-05-07T12:32:23;14.48;;;8.65;;
30380;SDS011;17169;50.966;11.038;2023-05-07T12:35:26;13.32;;;8.32;;
30380;SDS011;17169;50.966;11.038;2023-05-07T12:38:33;13.98;;;8.75;;
30380;SDS011;17169;50.966;11.038;2023-05-07T12:41:51;14.65;;;9.13;;
30380;SDS011;17169;50.966;11.038;2023-05-07T12:44:54;13.50;;;8.40;;
30380;SDS011;17169;50.966;11.038;2023-05-07T12:48:00;13.68;;;8.07;;
30380;SDS011;17169;50.966;11.038;2023-05-07T12:51:04;11.98;;;7.60;;
30380;SDS011;17169;50.966;11.038;2023-05-07T12:54:09;14.75;;;8.32;;
30380;SDS011;17169;50.966;11.038;2023-05-07T12:57:11;12.30;;;8.00;;
30380;SDS011;17169;50.966;11.038;2023-05-07T13:00:14;11.32;;;7.90;;
30380;SDS011;17169;50.966;11.038;2023-05-07T13:03:21;12.70;;;8.27;;
30380;SDS011;17169;50.966;11.038;2023-05-07T13:06:24;11.15;;;7.38;;
30380;SDS011;17169;50.966;11.038;2023-05-07T13:09:28;15.48;;;7.40;;
30380;SDS011;17169;50.966;11.038;2023-05-07T13:12:30;11.90;;;8.30;;
30380;SDS011;17169;50.966;11.038;2023-05-07T13:15:33;12.38;;;7.28;;
30380;SDS011;17169;50.966;11.038;2023-05-07T13:18:36;10.23;;;7.40;;
30380;SDS011;17169;50.966;11.038;2023-05-07T13:21:40;11.07;;;6.82;;
30380;SDS011;17169;50.966;11.038;2023-05-07T13:24:44;11.00;;;6.80;;
30380;SDS011;17169;50.966;11.038;2023-05-07T13:27:46;8.27;;;6.05;;
30380;SDS011;17169;50.966;11.038;2023-05-07T13:30:49;10.23;;;6.55;;
30380;SDS011;17169;50.966;11.038;2023-05-07T13:33:53;8.77;;;6.07;;
30380;SDS011;17169;50.966;11.038;2023-05-07T13:36:56;11.82;;;7.03;;
30380;SDS011;17169;50.966;11.038;2023-05-07T13:40:00;8.65;;;6.20;;
30380;SDS011;17169;50.966;11.038;2023-05-07T13:43:05;9.20;;;5.53;;
30380;SDS011;17169;50.966;11.038;2023-05-07T13:46:08;8.85;;;6.20;;
30380;SDS011;17169;50.966;11.038;2023-05-07T13:49:11;10.52;;;6.25;;
30380;SDS011;17169;50.966;11.038;2023-05-07T13:52:13;9.60;;;5.85;;
30380;SDS011;17169;50.966;11.038;2023-05-07T13:55:18;7.03;;;5.40;;
30380;SDS011;17169;50.966;11.038;2023-05-07T13:58:21;9.85;;;6.57;;
30380;SDS011;17169;50.966;11.038;2023-05-07T14:01:23;6.90;;;5.10;;
30380;SDS011;17169;50.966;11.038;2023-05-07T14:04:26;7.10;;;5.38;;
30380;SDS011;17169;50.966;11.038;2023-05-07T14:07:28;8.13;;;5.50;;
30380;SDS011;17169;50.966;11.038;2023-05-07T14:10:32;7.72;;;5.00;;
30380;SDS011;17169;50.966;11.038;2023-05-07T14:13:35;9.73;;;5.88;;
30380;SDS011;17169;50.966;11.038;2023-05-07T14:16:37;8.38;;;5.82;;
30380;SDS011;17169;50.966;11.038;2023-05-07T14:19:40;8.10;;;5.78;;
30380;SDS011;17169;50.966;11.038;2023-05-07T14:22:42;8.45;;;5.55;;
30380;SDS011;17169;50.966;11.038;2023-05-07T14:25:47;11.57;;;5.82;;
30380;SDS011;17169;50.966;11.038;2023-05-07T14:28:49;8.52;;;5.43;;
30380;SDS011;17169;50.966;11.038;2023-05-07T14:31:51;8.85;;;5.28;;
30380;SDS011;17169;50.966;11.038;2023-05-07T14:34:54;6.05;;;4.32;;
30380;SDS011;17169;50.966;11.038;2023-05-07T14:37:56;6.10;;;4.47;;
30380;SDS011;17169;50.966;11.038;2023-05-07T14:41:00;7.78;;;4.03;;
30380;SDS011;17169;50.966;11.038;2023-05-07T14:44:03;7.57;;;4.47;;
30380;SDS011;17169;50.966;11.038;2023-05-07T14:47:05;5.78;;;4.05;;
30380;SDS011;17169;50.966;11.038;2023-05-07T14:50:08;7.18;;;4.80;;
30380;SDS011;17169;50.966;11.038;2023-05-07T14:53:11;9.20;;;4.10;;
30380;SDS011;17169;50.966;11.038;2023-05-07T14:56:14;5.78;;;3.72;;
30380;SDS011;17169;50.966;11.038;2023-05-07T14:59:17;6.38;;;3.97;;
30380;SDS011;17169;50.966;11.038;2023-05-07T15:02:21;4.88;;;3.55;;
30380;SDS011;17169;50.966;11.038;2023-05-07T15:05:23;5.53;;;3.65;;
30380;SDS011;17169;50.966;11.038;2023-05-07T15:08:26;4.55;;;3.13;;
30380;SDS011;17169;50.966;11.038;2023-05-07T15:11:30;5.10;;;3.15;;
30380;SDS011;17169;50.966;11.038;2023-05-07T15:14:32;5.22;;;3.70;;
30380;SDS011;17169;50.966;11.038;2023-05-07T15:17:35;6.78;;;3.00;;
30380;SDS011;17169;50.966;11.038;2023-05-07T15:20:37;5.15;;;3.13;;
30380;SDS011;17169;50.966;11.038;2023-05-07T15:23:40;4.05;;;2.80;;
30380;SDS011;17169;50.966;11.038;2023-05-07T15:26:45;3.55;;;2.42;;
30380;SDS011;17169;50.966;11.038;2023-05-07T15:29:48;5.28;;;3.00;;
30380;SDS011;17169;50.966;11.038;2023-05-07T15:32:50;5.30;;;2.53;;
30380;SDS011;17169;50.966;11.038;2023-05-07T15:35:53;4.05;;;2.35;;
30380;SDS011;17169;50.966;11.038;2023-05-07T15:38:59;4.65;;;2.67;;
30380;SDS011;17169;50.966;11.038;2023-05-07T15:42:04;6.70;;;2.88;;
30380;SDS011;17169;50.966;11.038;2023-05-07T15:45:07;4.30;;;2.80;;
30380;SDS011;17169;50.966;11.038;2023-05-07T15:48:11;5.70;;;2.70;;
30380;SDS011;17169;50.966;11.038;2023-05-07T15:51:13;6.00;;;3.13;;
30380;SDS011;17169;50.966;11.038;2023-05-07T15:54:16;6.85;;;3.25;;
30380;SDS011;17169;50.966;11.038;2023-05-07T15:57:21;5.28;;;3.42;;
30380;SDS011;17169;50.966;11.038;2023-05-07T16:00:25;5.90;;;3.15;;
30380;SDS011;17169;50.966;11.038;2023-05-07T16:03:28;5.32;;;3.80;;
30380;SDS011;17169;50.966;11.038;2023-05-07T16:06:31;8.00;;;4.38;;
30380;SDS011;17169;50.966;11.038;2023-05-07T16:09:33;6.47;;;4.22;;
30380;SDS011;17169;50.966;11.038;2023-05-07T16:12:37;6.78;;;4.00;;
30380;SDS011;17169;50.966;11.038;2023-05-07T16:15:40;9.38;;;4.57;;
30380;SDS011;17169;50.966;11.038;2023-05-07T16:18:42;8.40;;;3.90;;
30380;SDS011;17169;50.966;11.038;2023-05-07T16:21:44;7.70;;;4.53;;
30380;SDS011;17169;50.966;11.038;2023-05-07T16:24:47;7.35;;;3.95;;
30380;SDS011;17169;50.966;11.038;2023-05-07T16:27:50;5.60;;;3.83;;
30380;SDS011;17169;50.966;11.038;2023-05-07T16:30:54;7.05;;;4.47;;
30380;SDS011;17169;50.966;11.038;2023-05-07T16:33:56;7.47;;;5.55;;
30380;SDS011;17169;50.966;11.038;2023-05-07T16:36:58;7.70;;;4.25;;
30380;SDS011;17169;50.966;11.038;2023-05-07T16:40:01;6.55;;;4.60;;
30380;SDS011;17169;50.966;11.038;2023-05-07T16:43:08;8.70;;;5.25;;
30380;SDS011;17169;50.966;11.038;2023-05-07T16:46:10;7.57;;;5.10;;
30380;SDS011;17169;50.966;11.038;2023-05-07T16:49:13;7.93;;;5.68;;
30380;SDS011;17169;50.966;11.038;2023-05-07T16:52:15;8.98;;;5.55;;
30380;SDS011;17169;50.966;11.038;2023-05-07T16:55:18;9.80;;;6.00;;
30380;SDS011;17169;50.966;11.038;2023-05-07T16:58:22;7.45;;;5.20;;
30380;SDS011;17169;50.966;11.038;2023-05-07T17:01:24;8.15;;;5.90;;
30380;SDS011;17169;50.966;11.038;2023-05-07T17:04:26;8.50;;;4.70;;
30380;SDS011;17169;50.966;11.038;2023-05-07T17:07:29;12.82;;;9.32;;
30380;SDS011;17169;50.966;11.038;2023-05-07T17:10:31;6.57;;;4.80;;
30380;SDS011;17169;50.966;11.038;2023-05-07T17:13:35;9.68;;;5.22;;
30380;SDS011;17169;50.966;11.038;2023-05-07T17:16:37;7.80;;;4.68;;
30380;SDS011;17169;50.966;11.038;2023-05-07T17:19:40;6.40;;;5.20;;
30380;SDS011;17169;50.966;11.038;2023-05-07T17:22:42;8.93;;;5.35;;
30380;SDS011;17169;50.966;11.038;2023-05-07T17:25:44;7.75;;;5.15;;
30380;SDS011;17169;50.966;11.038;2023-05-07T17:28:49;9.35;;;4.93;;
30380;SDS011;17169;50.966;11.038;2023-05-07T17:31:52;7.95;;;5.72;;
30380;SDS011;17169;50.966;11.038;2023-05-07T17:34:54;9.90;;;5.68;;
30380;SDS011;17169;50.966;11.038;2023-05-07T17:37:57;7.85;;;5.07;;
30380;SDS011;17169;50.966;11.038;2023-05-07T17:40:59;8.98;;;5.05;;
30380;SDS011;17169;50.966;11.038;2023-05-07T17:44:03;8.27;;;5.20;;
30380;SDS011;17169;50.966;11.038;2023-05-07T17:47:06;9.63;;;4.80;;
30380;SDS011;17169;50.966;11.038;2023-05-07T17:50:09;7.88;;;5.18;;
30380;SDS011;17169;50.966;11.038;2023-05-07T17:53:12;8.77;;;5.05;;